Time;durP1;ratioP1;P1;durP2;ratioP2;P2;SDS_P1;SDS_P2;PMS_P1;PMS_P2;Temp;Humidity;BMP_temperature;BMP_pressure;BME280_temperature;BME280_humidity;BME280_pressure;Samples;Min_cycle;Max_cycle;Signal;HPM_P1;HPM_P2
2021/10/01 00:01:15;;;;;;;4.10;1.70;;;14.50;99.90;;;;;;5097427;28;20099;-72
2021/10/01 00:03:41;;;;;;;4.97;1.75;;;14.50;99.90;;;;;;5097599;28;20073;-73
2021/10/01 00:06:07;;;;;;;6.05;1.83;;;14.50;99.90;;;;;;5097875;28;20019;-72
2021/10/01 00:08:32;;;;;;;11.57;2.17;;;14.50;99.90;;;;;;5097564;28;20102;-72
2021/10/01 00:10:58;;;;;;;9.40;1.63;;;14.50;99.90;;;;;;5096809;28;20466;-71
2021/10/01 00:13:25;;;;;;;10.50;2.03;;;14.60;99.90;;;;;;5097696;28;20380;-71
2021/10/01 00:15:52;;;;;;;5.63;1.60;;;14.50;99.90;;;;;;5097150;28;20024;-72
2021/10/01 00:18:18;;;;;;;5.05;2.03;;;14.60;99.90;;;;;;5097356;28;20028;-71
2021/10/01 00:20:43;;;;;;;5.63;2.05;;;14.60;99.90;;;;;;5096965;28;20553;-72
2021/10/01 00:23:09;;;;;;;6.35;2.50;;;14.60;99.90;;;;;;5096964;28;20436;-72
2021/10/01 00:25:35;;;;;;;6.15;2.00;;;14.60;99.90;;;;;;5096941;28;20027;-72
2021/10/01 00:28:01;;;;;;;5.80;1.77;;;14.70;99.90;;;;;;5096947;28;20055;-72
2021/10/01 00:30:26;;;;;;;7.18;2.20;;;14.70;99.90;;;;;;5096855;28;20063;-72
2021/10/01 00:32:53;;;;;;;7.43;1.70;;;14.70;99.90;;;;;;5096834;28;20039;-73
2021/10/01 00:35:19;;;;;;;7.93;1.70;;;14.80;99.90;;;;;;5097065;28;20016;-72
2021/10/01 00:37:45;;;;;;;4.60;1.60;;;14.70;99.90;;;;;;5096996;28;20103;-71
2021/10/01 00:40:11;;;;;;;6.60;1.95;;;14.80;99.90;;;;;;5096693;28;20491;-72
2021/10/01 00:42:37;;;;;;;7.03;1.50;;;14.80;99.90;;;;;;5096788;28;20028;-72
2021/10/01 00:45:04;;;;;;;7.07;1.63;;;14.80;99.90;;;;;;5096569;28;20026;-72
2021/10/01 00:47:29;;;;;;;8.77;2.38;;;14.80;99.90;;;;;;5096501;28;20048;-72
2021/10/01 00:49:55;;;;;;;9.88;2.15;;;14.80;99.90;;;;;;5096773;28;20491;-72
2021/10/01 00:52:21;;;;;;;8.57;2.50;;;14.80;99.90;;;;;;5097010;28;20107;-72
2021/10/01 00:54:48;;;;;;;6.60;1.30;;;14.80;99.90;;;;;;5096388;28;20024;-73
2021/10/01 00:57:14;;;;;;;8.27;1.40;;;14.80;99.90;;;;;;5096379;28;20032;-71
2021/10/01 00:59:40;;;;;;;9.85;2.13;;;14.80;99.90;;;;;;5096641;28;20032;-71
2021/10/01 01:02:06;;;;;;;7.47;1.52;;;14.80;99.90;;;;;;5096220;28;20473;-72
2021/10/01 01:04:32;;;;;;;5.88;1.63;;;14.80;99.90;;;;;;5096462;28;20017;-72
2021/10/01 01:07:19;;;;;;;6.03;1.70;;;14.80;99.90;;;;;;5096234;28;20032;-72
2021/10/01 01:09:58;;;;;;;6.05;1.60;;;14.80;99.90;;;;;;5096142;28;20113;-72
2021/10/01 01:12:32;;;;;;;7.80;1.73;;;14.80;99.90;;;;;;5096367;28;20028;-72
2021/10/01 01:15:08;;;;;;;4.13;1.35;;;14.80;99.90;;;;;;5096323;28;20259;-71
2021/10/01 01:17:34;;;;;;;2.83;1.35;;;14.80;99.90;;;;;;5095978;28;20028;-73
2021/10/01 01:20:09;;;;;;;8.80;1.92;;;14.80;99.90;;;;;;5096394;28;20084;-72
2021/10/01 01:22:56;;;;;;;8.48;1.77;;;14.80;99.90;;;;;;5094227;28;20028;-72
2021/10/01 01:25:44;;;;;;;5.78;1.48;;;14.80;99.90;;;;;;5094351;28;20020;-71
2021/10/01 01:28:11;;;;;;;5.40;1.75;;;14.80;99.90;;;;;;5096372;28;20022;-72
2021/10/01 01:30:44;;;;;;;5.45;2.08;;;14.80;99.90;;;;;;5095746;28;20020;-72
2021/10/01 01:33:15;;;;;;;4.22;1.75;;;14.80;99.90;;;;;;5096003;28;20430;-72
2021/10/01 01:35:42;;;;;;;6.50;1.60;;;14.80;99.90;;;;;;5095655;28;20035;-72
2021/10/01 01:38:14;;;;;;;4.47;1.52;;;14.90;99.90;;;;;;5095833;28;20020;-72
2021/10/01 01:40:47;;;;;;;8.80;2.00;;;14.90;99.90;;;;;;5096255;28;20028;-71
2021/10/01 01:43:13;;;;;;;7.10;2.20;;;14.90;99.90;;;;;;5095752;28;20039;-71
2021/10/01 01:45:41;;;;;;;5.63;1.40;;;14.90;99.90;;;;;;5095415;28;20059;-73
2021/10/01 01:48:08;;;;;;;4.22;1.33;;;14.90;99.90;;;;;;5095389;28;20020;-72
2021/10/01 01:50:34;;;;;;;8.30;1.45;;;14.90;99.90;;;;;;5095316;28;20020;-73
2021/10/01 01:53:02;;;;;;;4.50;1.80;;;15.00;99.90;;;;;;5095282;28;20024;-71
2021/10/01 01:55:29;;;;;;;7.03;1.60;;;14.90;99.90;;;;;;5095808;28;20024;-72
2021/10/01 01:57:56;;;;;;;4.07;1.50;;;14.90;99.90;;;;;;5095451;28;20024;-73
2021/10/01 02:00:22;;;;;;;5.95;2.10;;;14.90;99.90;;;;;;5095676;28;20380;-72
2021/10/01 02:02:49;;;;;;;6.05;1.95;;;15.00;99.90;;;;;;5095027;28;20024;-72
2021/10/01 02:05:16;;;;;;;5.82;1.70;;;15.00;99.90;;;;;;5095031;28;20388;-71
2021/10/01 02:07:42;;;;;;;9.15;1.50;;;15.00;99.90;;;;;;5094980;28;20020;-71
2021/10/01 02:10:10;;;;;;;4.18;1.52;;;15.00;99.90;;;;;;5094718;28;20055;-72
2021/10/01 02:12:36;;;;;;;7.95;1.48;;;15.00;99.90;;;;;;5094869;28;20024;-73
2021/10/01 02:15:03;;;;;;;6.60;1.70;;;15.00;99.90;;;;;;5094313;28;20051;-72
2021/10/01 02:17:32;;;;;;;4.47;1.73;;;15.00;99.90;;;;;;5094835;28;20480;-72
2021/10/01 02:20:01;;;;;;;8.25;1.77;;;15.00;99.90;;;;;;5094682;28;20024;-72
2021/10/01 02:22:28;;;;;;;7.50;1.60;;;15.10;99.90;;;;;;5094935;28;20016;-72
2021/10/01 02:24:54;;;;;;;6.20;1.80;;;15.10;99.90;;;;;;5094663;28;20024;-72
2021/10/01 02:27:22;;;;;;;6.28;1.60;;;15.10;99.90;;;;;;5094586;28;20028;-72
2021/10/01 02:30:11;;;;;;;7.05;1.80;;;15.10;99.90;;;;;;5094579;28;20073;-72
2021/10/01 02:32:42;;;;;;;5.43;1.60;;;15.10;99.90;;;;;;5095102;28;20020;-73
2021/10/01 02:35:08;;;;;;;7.05;1.85;;;15.10;99.90;;;;;;5095043;28;20444;-72
2021/10/01 02:37:35;;;;;;;6.20;1.95;;;15.00;99.90;;;;;;5094428;28;20035;-72
2021/10/01 02:40:02;;;;;;;4.60;1.60;;;15.00;99.90;;;;;;5094398;28;20024;-73
2021/10/01 02:42:29;;;;;;;6.65;1.60;;;14.90;99.90;;;;;;5094270;28;20021;-71
2021/10/01 02:44:56;;;;;;;6.90;2.15;;;14.90;99.90;;;;;;5094208;28;20030;-72
2021/10/01 02:47:30;;;;;;;5.55;1.70;;;14.90;99.90;;;;;;5094797;28;20039;-72
2021/10/01 02:49:57;;;;;;;4.90;2.03;;;14.90;99.90;;;;;;5094229;28;20464;-72
2021/10/01 02:52:50;;;;;;;6.88;2.00;;;14.90;99.90;;;;;;5094475;28;20023;-72
2021/10/01 02:55:18;;;;;;;7.30;1.98;;;14.80;99.90;;;;;;5094731;28;20047;-72
2021/10/01 02:57:54;;;;;;;7.53;1.60;;;14.90;99.90;;;;;;5094078;28;20020;-72
2021/10/01 03:00:20;;;;;;;10.57;2.42;;;14.80;99.90;;;;;;5094625;28;20024;-72
2021/10/01 03:02:49;;;;;;;6.18;1.83;;;14.80;99.90;;;;;;5093866;28;20113;-73
2021/10/01 03:05:16;;;;;;;11.07;2.35;;;14.90;99.90;;;;;;5093944;28;20026;-71
2021/10/01 03:07:44;;;;;;;8.55;2.55;;;14.90;99.90;;;;;;5093903;28;20012;-71
2021/10/01 03:10:12;;;;;;;3.13;1.42;;;14.90;99.90;;;;;;5093544;28;20089;-72
2021/10/01 03:12:38;;;;;;;4.32;1.50;;;14.90;99.90;;;;;;5093772;28;20107;-72
2021/10/01 03:15:05;;;;;;;4.63;1.67;;;14.90;99.90;;;;;;5094085;28;20103;-71
2021/10/01 03:17:32;;;;;;;6.65;1.80;;;15.00;99.90;;;;;;5094029;28;20035;-73
2021/10/01 03:19:59;;;;;;;8.23;1.70;;;14.90;99.90;;;;;;5093858;28;20525;-72
2021/10/01 03:22:31;;;;;;;10.60;2.40;;;15.00;99.90;;;;;;5093618;28;20476;-72
2021/10/01 03:25:00;;;;;;;8.48;2.25;;;15.00;99.90;;;;;;5093680;28;20012;-72
2021/10/01 03:27:28;;;;;;;8.43;1.92;;;15.00;99.90;;;;;;5092764;28;20028;-71
2021/10/01 03:29:58;;;;;;;5.13;1.85;;;15.00;99.90;;;;;;5093518;28;20095;-72
2021/10/01 03:32:24;;;;;;;10.10;1.50;;;15.00;99.90;;;;;;5093892;28;20048;-71
2021/10/01 03:34:49;;;;;;;7.63;1.70;;;15.00;99.90;;;;;;5093790;28;20064;-72
2021/10/01 03:37:15;;;;;;;7.03;2.00;;;15.00;99.90;;;;;;5093748;28;20024;-71
2021/10/01 03:39:40;;;;;;;6.38;1.60;;;15.00;99.90;;;;;;5093459;28;20020;-72
2021/10/01 03:42:07;;;;;;;8.55;1.83;;;15.00;99.90;;;;;;5093606;28;20076;-73
2021/10/01 03:44:32;;;;;;;6.95;1.95;;;15.00;99.90;;;;;;5093690;28;20101;-71
2021/10/01 03:46:58;;;;;;;6.18;1.92;;;15.00;99.90;;;;;;5093661;28;20438;-72
2021/10/01 03:49:23;;;;;;;8.48;1.70;;;15.00;99.90;;;;;;5093650;28;20095;-72
2021/10/01 03:51:49;;;;;;;7.55;1.70;;;15.00;99.90;;;;;;5093641;28;20484;-73
2021/10/01 03:54:15;;;;;;;4.32;1.70;;;15.00;99.90;;;;;;5093608;28;20387;-71
2021/10/01 03:56:40;;;;;;;8.60;2.38;;;15.00;99.90;;;;;;5093511;28;20028;-72
2021/10/01 03:59:06;;;;;;;4.47;1.52;;;15.00;99.90;;;;;;5093283;28;20074;-71
2021/10/01 04:01:32;;;;;;;5.82;1.80;;;15.00;99.90;;;;;;5093248;28;20032;-72
2021/10/01 04:03:58;;;;;;;7.35;1.95;;;15.10;99.90;;;;;;5091830;28;20442;-72
2021/10/01 04:06:23;;;;;;;7.40;1.90;;;15.00;99.90;;;;;;5093197;28;20081;-72
2021/10/01 04:08:49;;;;;;;6.90;2.00;;;15.00;99.90;;;;;;5093488;28;20065;-73
2021/10/01 04:11:15;;;;;;;5.60;1.83;;;15.00;99.90;;;;;;5092705;28;20040;-72
2021/10/01 04:13:41;;;;;;;4.93;1.75;;;15.00;99.90;;;;;;5093090;28;20091;-73
2021/10/01 04:16:07;;;;;;;10.40;1.92;;;15.00;99.90;;;;;;5093085;28;20028;-73
2021/10/01 04:18:32;;;;;;;7.88;1.85;;;15.00;99.90;;;;;;5093360;28;20035;-71
2021/10/01 04:20:58;;;;;;;13.15;2.13;;;15.00;99.90;;;;;;5093254;28;20031;-73
2021/10/01 04:23:23;;;;;;;6.35;2.13;;;15.00;99.90;;;;;;5093003;28;20028;-71
2021/10/01 04:25:49;;;;;;;6.82;2.10;;;15.00;99.90;;;;;;5092988;28;20039;-73
2021/10/01 04:28:15;;;;;;;5.13;1.70;;;15.00;99.90;;;;;;5092969;28;20027;-72
2021/10/01 04:30:47;;;;;;;12.20;2.20;;;15.00;99.90;;;;;;5092930;28;20028;-72
2021/10/01 04:33:17;;;;;;;5.45;1.30;;;15.10;99.90;;;;;;5092946;28;20483;-71
2021/10/01 04:35:42;;;;;;;10.27;2.15;;;15.10;99.90;;;;;;5093191;28;20024;-72
2021/10/01 04:38:08;;;;;;;9.43;1.95;;;15.00;99.90;;;;;;5094079;28;20499;-71
2021/10/01 04:40:33;;;;;;;4.05;1.90;;;15.10;99.90;;;;;;5096982;28;20486;-72
2021/10/01 04:43:00;;;;;;;13.75;2.15;;;15.10;99.90;;;;;;5096882;28;20059;-72
2021/10/01 04:45:26;;;;;;;6.97;2.20;;;15.10;99.90;;;;;;5096671;28;20062;-72
2021/10/01 04:47:52;;;;;;;7.38;2.00;;;15.10;99.90;;;;;;5096598;28;20066;-72
2021/10/01 04:50:17;;;;;;;6.25;1.60;;;15.10;99.90;;;;;;5096505;28;20028;-72
2021/10/01 04:52:43;;;;;;;5.75;1.95;;;15.10;99.90;;;;;;5096464;28;20028;-72
2021/10/01 04:55:09;;;;;;;11.98;2.00;;;15.10;99.90;;;;;;5096709;28;20422;-71
2021/10/01 04:57:34;;;;;;;5.43;1.65;;;15.10;99.90;;;;;;5096379;28;20440;-73
2021/10/01 05:00:00;;;;;;;7.45;2.10;;;15.10;99.90;;;;;;5096357;28;20550;-72
2021/10/01 05:02:26;;;;;;;5.90;1.73;;;15.10;99.90;;;;;;5096220;28;20077;-72
2021/10/01 05:04:54;;;;;;;4.65;1.50;;;15.10;99.90;;;;;;5096269;28;20076;-72
2021/10/01 05:07:21;;;;;;;7.95;2.20;;;15.10;99.90;;;;;;5096476;28;20499;-72
2021/10/01 05:09:46;;;;;;;5.63;1.95;;;15.10;99.90;;;;;;5096053;28;20415;-72
2021/10/01 05:12:13;;;;;;;5.03;1.58;;;15.10;99.90;;;;;;5096375;28;20020;-72
2021/10/01 05:14:38;;;;;;;7.60;2.08;;;15.10;99.90;;;;;;5096316;28;20578;-72
2021/10/01 05:17:04;;;;;;;6.30;1.73;;;15.10;99.90;;;;;;5096046;28;20052;-71
2021/10/01 05:19:29;;;;;;;10.27;2.17;;;15.20;99.90;;;;;;5095997;28;20031;-73
2021/10/01 05:21:55;;;;;;;9.00;2.60;;;15.20;99.90;;;;;;5095816;28;20085;-73
2021/10/01 05:24:21;;;;;;;5.25;1.67;;;15.20;99.90;;;;;;5095795;28;20027;-71
2021/10/01 05:26:46;;;;;;;4.28;1.60;;;15.20;99.90;;;;;;5095837;28;20097;-72
2021/10/01 05:29:12;;;;;;;9.68;2.20;;;15.20;99.90;;;;;;5095784;28;20487;-73
2021/10/01 05:31:38;;;;;;;8.70;2.97;;;15.20;99.90;;;;;;5095718;28;20569;-71
2021/10/01 05:34:04;;;;;;;5.28;1.90;;;15.20;99.90;;;;;;5095711;28;20103;-72
2021/10/01 05:36:32;;;;;;;8.80;1.77;;;15.20;99.90;;;;;;5095636;28;20491;-72
2021/10/01 05:38:58;;;;;;;7.78;1.92;;;15.30;99.90;;;;;;5095628;28;20028;-72
2021/10/01 05:41:24;;;;;;;8.68;1.88;;;15.30;99.90;;;;;;5095529;28;20031;-72
2021/10/01 05:43:49;;;;;;;8.20;1.85;;;15.30;99.90;;;;;;5095701;28;20085;-72
2021/10/01 05:46:16;;;;;;;5.15;1.88;;;15.30;99.90;;;;;;5095706;28;20468;-71
2021/10/01 05:48:45;;;;;;;7.32;1.95;;;15.30;99.90;;;;;;5094146;28;20028;-72
2021/10/01 05:51:13;;;;;;;5.85;1.92;;;15.30;99.90;;;;;;5094464;28;20020;-72
2021/10/01 05:56:08;;;;;;;5.80;1.92;;;15.30;99.90;;;;;;5095276;28;20031;-73
2021/10/01 05:58:37;;;;;;;3.50;1.77;;;15.20;99.90;;;;;;5095203;28;20024;-73
2021/10/01 06:01:03;;;;;;;8.52;2.50;;;15.30;99.90;;;;;;5095142;28;20024;-71
2021/10/01 06:03:29;;;;;;;11.35;2.55;;;15.30;99.90;;;;;;5094996;28;20062;-72
2021/10/01 06:05:55;;;;;;;8.27;2.13;;;15.30;99.90;;;;;;5095016;28;20051;-72
2021/10/01 06:08:21;;;;;;;4.30;1.67;;;15.30;99.90;;;;;;5095278;28;20070;-72
2021/10/01 06:10:47;;;;;;;11.98;2.25;;;15.30;99.90;;;;;;5094861;28;20040;-71
2021/10/01 06:13:13;;;;;;;9.85;2.17;;;15.30;99.90;;;;;;5094876;28;20515;-71
2021/10/01 06:15:39;;;;;;;11.38;2.50;;;15.30;99.90;;;;;;5094851;28;20024;-71
2021/10/01 06:18:05;;;;;;;7.32;2.25;;;15.30;99.90;;;;;;5095058;28;20032;-72
2021/10/01 06:20:30;;;;;;;11.98;2.15;;;15.30;99.90;;;;;;5093411;28;20407;-72
2021/10/01 06:22:56;;;;;;;6.15;2.13;;;15.40;99.90;;;;;;5094600;28;20032;-72
2021/10/01 06:25:22;;;;;;;9.07;2.78;;;15.40;99.90;;;;;;5094719;28;20129;-71
2021/10/01 06:27:49;;;;;;;11.27;2.10;;;15.40;99.90;;;;;;5094667;28;20027;-72
2021/10/01 06:30:16;;;;;;;9.73;2.05;;;15.30;99.90;;;;;;5094560;28;20012;-72
2021/10/01 06:32:41;;;;;;;8.43;1.98;;;15.30;99.90;;;;;;5094545;28;20074;-78
2021/10/01 06:35:08;;;;;;;9.32;1.98;;;15.30;99.90;;;;;;5094841;28;20032;-71
2021/10/01 06:37:34;;;;;;;11.73;2.58;;;15.30;99.90;;;;;;5094470;28;20024;-72
2021/10/01 06:40:00;;;;;;;5.97;2.42;;;15.30;99.90;;;;;;5094450;28;20401;-72
2021/10/01 06:42:26;;;;;;;8.23;2.00;;;15.30;99.90;;;;;;5094296;28;20107;-71
2021/10/01 06:44:54;;;;;;;13.93;2.60;;;15.30;99.90;;;;;;5094329;28;20545;-71
2021/10/01 06:47:31;;;;;;;8.63;2.28;;;15.30;99.90;;;;;;5094261;28;20020;-73
2021/10/01 06:50:09;;;;;;;6.80;2.50;;;15.30;99.90;;;;;;5092676;28;20432;-71
2021/10/01 08:19:39;;;;;;;6.75;2.20;;;15.50;99.90;;;;;;5096360;28;20031;-74
2021/10/01 08:22:05;;;;;;;6.47;2.15;;;15.50;99.90;;;;;;5096576;28;20400;-72
2021/10/01 08:24:31;;;;;;;7.45;2.50;;;15.50;99.90;;;;;;5096561;28;20020;-71
2021/10/01 08:26:57;;;;;;;6.85;1.88;;;15.60;99.90;;;;;;5097170;28;20035;-72
2021/10/01 08:29:23;;;;;;;6.70;1.85;;;15.60;99.90;;;;;;5096986;28;20170;-71
2021/10/01 08:31:49;;;;;;;7.03;2.10;;;15.70;99.90;;;;;;5096921;28;20024;-71
2021/10/01 08:34:16;;;;;;;4.38;1.90;;;15.80;99.90;;;;;;5097196;28;20476;-74
2021/10/01 08:36:43;;;;;;;5.97;1.92;;;15.80;99.90;;;;;;5097501;28;20107;-74
2021/10/01 08:39:09;;;;;;;6.57;2.50;;;15.80;99.90;;;;;;5097068;28;20468;-72
2021/10/01 08:41:37;;;;;;;5.60;1.95;;;15.90;99.90;;;;;;5096687;28;20032;-71
2021/10/01 08:44:04;;;;;;;10.02;1.88;;;15.90;99.90;;;;;;5096631;28;20012;-72
2021/10/01 08:46:30;;;;;;;5.40;2.10;;;16.00;99.90;;;;;;5096637;28;20032;-72
2021/10/01 08:48:59;;;;;;;5.88;2.13;;;16.10;99.90;;;;;;5096578;28;20023;-70
2021/10/01 08:51:25;;;;;;;9.15;1.98;;;16.20;99.90;;;;;;5096881;28;20020;-70
2021/10/01 08:53:52;;;;;;;6.35;1.67;;;16.30;99.90;;;;;;5096777;28;20137;-71
2021/10/01 08:56:19;;;;;;;7.68;1.98;;;16.30;99.90;;;;;;5096404;28;20040;-69
2021/10/01 08:58:45;;;;;;;6.50;2.03;;;16.40;99.90;;;;;;5096530;28;20032;-70
2021/10/01 09:01:11;;;;;;;3.78;1.80;;;16.30;99.90;;;;;;5096381;28;20077;-71
2021/10/01 09:03:40;;;;;;;7.45;1.98;;;16.30;99.90;;;;;;5096887;28;20060;-71
2021/10/01 09:06:06;;;;;;;3.90;1.67;;;16.30;99.90;;;;;;5096276;28;20024;-71
2021/10/01 09:08:34;;;;;;;4.28;1.60;;;16.20;99.90;;;;;;5096222;28;20620;-70
2021/10/01 09:11:03;;;;;;;5.10;2.00;;;16.20;99.90;;;;;;5095880;28;20446;-72
2021/10/01 09:13:30;;;;;;;4.20;1.88;;;16.10;99.90;;;;;;5096651;28;20020;-71
2021/10/01 09:16:05;;;;;;;5.78;1.85;;;16.10;99.90;;;;;;5096086;28;20028;-75
2021/10/01 09:18:34;;;;;;;5.25;1.65;;;16.00;99.90;;;;;;5096356;28;20473;-74
2021/10/01 09:21:14;;;;;;;4.45;1.77;;;16.00;99.90;;;;;;5095891;28;20024;-72
2021/10/01 09:23:45;;;;;;;;;;;15.90;99.90;;;;;;5096920;28;20448;-72
2021/10/01 09:26:13;;;;;;;6.55;1.55;;;16.00;99.90;;;;;;5094738;28;19992;-71
2021/10/01 09:28:51;;;;;;;4.72;1.50;;;16.00;99.90;;;;;;5095127;28;20431;-72
2021/10/01 09:31:46;;;;;;;4.38;1.25;;;16.00;99.90;;;;;;5093229;28;20052;-73
2021/10/01 09:34:33;;;;;;;4.47;1.33;;;16.00;99.90;;;;;;5093287;28;20028;-71
2021/10/01 09:37:06;;;;;;;2.88;1.10;;;16.00;99.90;;;;;;5093419;28;20499;-72
2021/10/01 09:39:39;;;;;;;2.58;1.00;;;16.10;99.90;;;;;;5093396;28;20020;-73
2021/10/01 09:42:19;;;;;;;3.78;1.75;;;16.10;99.90;;;;;;5093478;28;20106;-72
2021/10/01 09:44:55;;;;;;;2.78;1.00;;;16.10;99.90;;;;;;5094534;28;20028;-71
2021/10/01 09:47:30;;;;;;;2.53;1.00;;;16.10;99.90;;;;;;5095764;28;20106;-74
2021/10/01 09:50:01;;;;;;;2.47;1.13;;;16.10;99.90;;;;;;5095546;28;20032;-72
2021/10/01 09:53:02;;;;;;;4.82;1.33;;;16.10;99.90;;;;;;5095478;28;20495;-72
2021/10/01 09:55:29;;;;;;;3.03;1.30;;;16.10;99.90;;;;;;5040977;28;20039;-71
2021/10/01 09:58:09;;;;;;;6.53;2.40;;;16.10;99.90;;;;;;5095532;28;20023;-71
2021/10/01 10:00:49;;;;;;;4.63;2.33;;;16.10;99.90;;;;;;5095831;28;20024;-72
2021/10/01 10:03:28;;;;;;;6.22;2.80;;;16.20;99.90;;;;;;5095657;28;20055;-72
2021/10/01 10:06:04;;;;;;;6.75;2.53;;;16.10;99.90;;;;;;5095429;28;20107;-73
2021/10/01 10:08:35;;;;;;;5.30;2.42;;;16.10;99.90;;;;;;5095064;28;20058;-70
2021/10/01 10:11:06;;;;;;;5.25;2.10;;;16.10;99.90;;;;;;5094709;28;20097;-72
2021/10/01 10:13:43;;;;;;;3.30;1.60;;;16.10;99.90;;;;;;5095553;28;20057;-71
2021/10/01 10:16:19;;;;;;;3.20;1.55;;;16.10;99.90;;;;;;5095253;28;20463;-72
2021/10/01 10:18:48;;;;;;;3.67;1.30;;;16.10;99.90;;;;;;5095195;28;20024;-72
2021/10/01 10:21:14;;;;;;;3.05;1.25;;;16.10;99.90;;;;;;5094785;28;20107;-70
2021/10/01 10:23:40;;;;;;;2.50;1.20;;;16.10;99.90;;;;;;5094988;28;20024;-72
2021/10/01 10:26:06;;;;;;;2.67;1.08;;;16.10;99.90;;;;;;5095004;28;20021;-71
2021/10/01 10:28:34;;;;;;;1.65;0.80;;;16.10;99.90;;;;;;5094685;28;20020;-70
2021/10/01 10:31:00;;;;;;;1.67;0.90;;;16.20;99.90;;;;;;5094638;28;20026;-73
2021/10/01 10:33:35;;;;;;;3.47;1.00;;;16.30;99.90;;;;;;5095096;28;20102;-71
2021/10/01 10:36:21;;;;;;;2.50;1.10;;;16.40;99.90;;;;;;5094144;28;20039;-70
2021/10/01 10:38:46;;;;;;;1.33;0.93;;;16.50;99.90;;;;;;5094442;28;20117;-71
2021/10/01 10:41:27;;;;;;;2.15;0.88;;;16.60;99.90;;;;;;5094446;28;20493;-71
2021/10/01 10:43:53;;;;;;;2.13;1.00;;;16.60;99.90;;;;;;5094624;28;20024;-72
2021/10/01 10:46:41;;;;;;;2.85;1.02;;;16.70;99.90;;;;;;5094939;28;20031;-72
2021/10/01 10:49:27;;;;;;;0.80;0.80;;;16.80;99.90;;;;;;5094899;28;20476;-71
2021/10/01 10:52:17;;;;;;;3.20;1.13;;;16.90;99.90;;;;;;5094266;28;20194;-72
2021/10/01 10:54:51;;;;;;;2.38;0.90;;;16.80;99.90;;;;;;5093519;28;20065;-72
2021/10/01 10:57:17;;;;;;;0.60;0.60;;;16.80;99.90;;;;;;5094169;28;20550;-71
2021/10/01 10:59:53;;;;;;;1.65;0.73;;;16.80;99.90;;;;;;5094087;28;20028;-72
2021/10/01 11:02:25;;;;;;;1.05;0.70;;;16.80;99.90;;;;;;5094072;28;20028;-72
2021/10/01 11:05:12;;;;;;;1.02;0.50;;;16.90;99.90;;;;;;5092464;28;20488;-71
2021/10/01 11:07:47;;;;;;;0.65;0.65;;;17.00;99.90;;;;;;5093908;28;20070;-75
2021/10/01 11:10:51;;;;;;;1.40;0.80;;;17.10;99.90;;;;;;5093546;28;20054;-73
2021/10/01 11:13:23;;;;;;;1.67;0.50;;;17.30;99.90;;;;;;5093987;28;20040;-73
2021/10/01 11:16:14;;;;;;;1.67;0.50;;;17.50;99.90;;;;;;5094087;28;20047;-71
2021/10/01 11:18:43;;;;;;;1.48;0.75;;;17.50;99.90;;;;;;5094431;28;20024;-71
2021/10/01 11:24:12;;;;;;;1.08;0.50;;;17.50;99.90;;;;;;5093624;28;20105;-70
2021/10/01 11:26:50;;;;;;;2.00;0.75;;;17.50;99.90;;;;;;5093968;28;20027;-71
2021/10/01 11:29:33;;;;;;;1.83;0.63;;;17.60;99.90;;;;;;5094188;28;20017;-72
2021/10/01 11:32:04;;;;;;;1.98;0.73;;;17.80;99.90;;;;;;5093589;28;20161;-72
2021/10/01 11:34:51;;;;;;;1.63;0.60;;;17.80;99.90;;;;;;5093902;28;20107;-73
2021/10/01 11:37:31;;;;;;;1.90;0.85;;;17.80;99.90;;;;;;5094119;28;20028;-72
2021/10/01 11:40:16;;;;;;;0.70;0.40;;;17.90;99.90;;;;;;5093812;28;20031;-72
2021/10/01 11:42:44;;;;;;;3.90;1.00;;;18.00;99.90;;;;;;5092982;28;20036;-70
2021/10/01 11:45:23;;;;;;;2.50;0.60;;;18.00;99.90;;;;;;5093659;28;20106;-72
2021/10/01 11:47:55;;;;;;;4.00;1.07;;;18.00;99.90;;;;;;5092913;28;20024;-71
2021/10/01 11:50:40;;;;;;;0.80;0.68;;;18.20;99.90;;;;;;5093363;28;20254;-72
2021/10/01 11:53:18;;;;;;;1.42;0.70;;;18.30;99.90;;;;;;5094517;28;20029;-72
2021/10/01 11:55:55;;;;;;;1.15;0.60;;;18.40;99.90;;;;;;5093297;28;20037;-72
2021/10/01 11:58:23;;;;;;;0.65;0.47;;;18.70;99.90;;;;;;5093847;28;20031;-73
2021/10/01 12:00:48;;;;;;;2.00;0.77;;;18.80;99.90;;;;;;5093544;28;20112;-72
2021/10/01 12:03:16;;;;;;;2.92;1.00;;;18.80;99.90;;;;;;5093707;28;20055;-72
2021/10/01 12:05:47;;;;;;;3.20;0.60;;;18.70;99.90;;;;;;5093230;28;20534;-72
2021/10/01 12:08:16;;;;;;;1.83;0.80;;;18.70;99.90;;;;;;5093311;28;20080;-70
2021/10/01 12:10:47;;;;;;;2.15;0.90;;;18.70;99.90;;;;;;5093038;28;20055;-73
2021/10/01 12:13:28;;;;;;;1.77;0.98;;;18.70;99.90;;;;;;5093249;28;20028;-73
2021/10/01 12:15:56;;;;;;;2.35;1.10;;;18.70;99.90;;;;;;5093722;28;20036;-73
2021/10/01 12:18:28;;;;;;;3.72;1.50;;;18.70;99.90;;;;;;5093109;28;20384;-72
2021/10/01 12:20:55;;;;;;;2.83;1.38;;;18.80;99.90;;;;;;5093076;28;20582;-73
2021/10/01 12:23:27;;;;;;;1.42;1.05;;;18.80;99.90;;;;;;5093005;28;20032;-72
2021/10/01 12:25:53;;;;;;;4.30;1.25;;;18.90;99.90;;;;;;5093553;28;20051;-72
2021/10/01 12:28:22;;;;;;;4.35;1.30;;;18.90;99.90;;;;;;5093020;28;20055;-73
2021/10/01 12:31:02;;;;;;;4.32;1.52;;;18.90;99.90;;;;;;5093238;28;20104;-72
2021/10/01 12:33:29;;;;;;;3.60;1.52;;;18.90;99.90;;;;;;5093257;28;20020;-71
2021/10/01 12:35:55;;;;;;;2.95;1.40;;;18.90;99.90;;;;;;5092969;28;20415;-72
2021/10/01 12:38:21;;;;;;;2.83;1.20;;;19.00;99.90;;;;;;5092971;28;20082;-71
2021/10/01 12:41:09;;;;;;;4.35;1.35;;;19.10;99.90;;;;;;5092916;28;20479;-72
2021/10/01 12:43:43;;;;;;;2.03;1.10;;;19.10;99.90;;;;;;5092850;28;20024;-71
2021/10/01 12:46:09;;;;;;;6.82;1.92;;;19.20;99.90;;;;;;5093497;28;20020;-72
2021/10/01 12:48:35;;;;;;;2.97;1.70;;;19.20;99.90;;;;;;5092836;28;20016;-72
2021/10/01 12:51:01;;;;;;;2.25;1.13;;;19.30;99.90;;;;;;5092807;28;20016;-73
2021/10/01 12:53:27;;;;;;;3.42;1.45;;;19.30;99.90;;;;;;5092793;28;20077;-72
2021/10/01 12:55:52;;;;;;;2.50;1.30;;;19.40;99.90;;;;;;5092793;28;20063;-72
2021/10/01 12:58:20;;;;;;;4.18;1.50;;;19.30;99.90;;;;;;5092766;28;20031;-72
2021/10/01 13:00:45;;;;;;;3.70;1.63;;;19.30;99.90;;;;;;5096248;28;20391;-72
2021/10/01 13:03:11;;;;;;;5.00;1.55;;;19.30;99.90;;;;;;5096239;28;20026;-70
2021/10/01 13:05:42;;;;;;;5.45;2.03;;;19.30;99.90;;;;;;5096517;28;20093;-73
2021/10/01 13:08:09;;;;;;;3.47;1.40;;;19.30;99.90;;;;;;5096301;28;20016;-73
2021/10/01 13:10:42;;;;;;;7.57;2.38;;;19.30;99.90;;;;;;5096083;28;20044;-70
2021/10/01 13:13:13;;;;;;;4.10;1.30;;;19.30;99.90;;;;;;5096739;28;20468;-72
2021/10/01 13:15:44;;;;;;;3.65;1.60;;;19.40;99.90;;;;;;5096434;28;20460;-73
2021/10/01 13:20:54;;;;;;;2.67;1.60;;;19.40;99.90;;;;;;5095803;28;20051;-72
2021/10/01 13:23:31;;;;;;;3.42;1.50;;;19.30;99.90;;;;;;5095942;28;20025;-72
2021/10/01 13:26:00;;;;;;;4.72;1.25;;;19.30;99.90;;;;;;5096212;28;20476;-72
2021/10/01 13:28:28;;;;;;;5.93;1.90;;;19.20;99.90;;;;;;5095805;28;20020;-73
2021/10/01 13:30:54;;;;;;;4.63;1.60;;;19.30;99.90;;;;;;5095775;28;20404;-71
2021/10/01 13:33:23;;;;;;;4.88;1.48;;;19.20;99.90;;;;;;5095781;28;20021;-74
2021/10/01 13:35:50;;;;;;;3.63;1.80;;;19.20;99.90;;;;;;5095720;28;20080;-72
2021/10/01 13:38:15;;;;;;;4.43;1.77;;;19.20;99.90;;;;;;5095718;28;20043;-71
2021/10/01 13:40:42;;;;;;;7.25;1.77;;;19.20;99.90;;;;;;5095660;28;20051;-72
2021/10/01 13:43:08;;;;;;;4.82;2.17;;;19.20;99.90;;;;;;5095808;28;20099;-73
2021/10/01 13:45:34;;;;;;;6.13;1.83;;;19.20;99.90;;;;;;5095812;28;20449;-70
2021/10/01 13:48:01;;;;;;;8.68;2.58;;;19.20;99.90;;;;;;5095513;28;20020;-71
2021/10/01 13:50:26;;;;;;;4.35;1.98;;;19.20;99.90;;;;;;5095432;28;20023;-72
2021/10/01 13:52:52;;;;;;;6.38;1.85;;;19.20;99.90;;;;;;5096025;28;20024;-70
2021/10/01 13:55:18;;;;;;;7.65;2.35;;;19.10;99.90;;;;;;5095402;28;20392;-72
2021/10/01 13:57:45;;;;;;;6.57;2.00;;;19.20;99.90;;;;;;5095293;28;20024;-73
2021/10/01 14:00:13;;;;;;;8.30;1.98;;;19.30;99.90;;;;;;5095542;28;20149;-70
2021/10/01 14:02:41;;;;;;;7.63;1.80;;;19.30;99.90;;;;;;5095443;28;20025;-73
2021/10/01 14:05:10;;;;;;;8.55;2.35;;;19.20;99.90;;;;;;5095201;28;20024;-72
2021/10/01 14:07:38;;;;;;;5.85;2.45;;;19.30;99.90;;;;;;5095414;28;20380;-72
2021/10/01 14:10:09;;;;;;;8.23;1.85;;;19.40;99.90;;;;;;5094744;28;20075;-71
2021/10/01 14:12:35;;;;;;;2.65;1.20;;;19.50;99.90;;;;;;5095101;28;20016;-72
2021/10/01 14:15:02;;;;;;;5.00;1.63;;;19.60;99.90;;;;;;5095546;28;20090;-73
2021/10/01 14:17:28;;;;;;;4.00;1.23;;;19.50;99.90;;;;;;5094921;28;20069;-75
2021/10/01 14:19:54;;;;;;;2.50;0.95;;;19.40;99.40;;;;;;5094809;28;20028;-72
2021/10/01 14:22:20;;;;;;;2.25;0.63;;;19.30;99.90;;;;;;5095139;28;20092;-73
2021/10/01 14:24:45;;;;;;;3.60;0.80;;;19.30;99.00;;;;;;5094961;28;20101;-71
2021/10/01 14:27:11;;;;;;;3.85;1.10;;;19.20;98.60;;;;;;5095063;28;20055;-71
2021/10/01 14:29:37;;;;;;;5.30;1.33;;;19.20;99.50;;;;;;5094674;28;20017;-72
2021/10/01 14:32:03;;;;;;;2.83;0.80;;;19.30;98.80;;;;;;5094646;28;20514;-73